sensor_id;sensor_type;location;lat;lon;timestamp;pressure;altitude;pressure_sealevel;temperature;humidity
36304;BME280;22335;49.800;8.596;2022-12-04T00:00:06;100338.88;;;7.51;52.74
36304;BME280;22335;49.800;8.596;2022-12-04T00:06:54;100405.41;;;7.85;52.91
36304;BME280;22335;49.800;8.596;2022-12-04T00:13:42;100392.56;;;7.71;53.05
36304;BME280;22335;49.800;8.596;2022-12-04T00:20:28;100401.56;;;7.66;53.08
36304;BME280;22335;49.800;8.596;2022-12-04T00:27:13;100396.88;;;7.56;52.89
36304;BME280;22335;49.800;8.596;2022-12-04T00:34:01;100406.16;;;7.60;53.29
36304;BME280;22335;49.800;8.596;2022-12-04T00:40:49;100401.47;;;7.51;53.26
36304;BME280;22335;49.800;8.596;2022-12-04T00:47:35;100392.47;;;7.45;53.21
36304;BME280;22335;49.800;8.596;2022-12-04T00:54:23;100403.09;;;7.47;53.44
36304;BME280;22335;49.800;8.596;2022-12-04T01:01:11;100399.25;;;7.43;53.47
36304;BME280;22335;49.800;8.596;2022-12-04T01:07:58;100404.69;;;7.37;53.38
36304;BME280;22335;49.800;8.596;2022-12-04T01:14:46;100391.06;;;7.32;53.43
36304;BME280;22335;49.800;8.596;2022-12-04T01:21:32;100378.75;;;7.20;53.50
36304;BME280;22335;49.800;8.596;2022-12-04T01:28:18;100375.59;;;7.43;53.41
36304;BME280;22335;49.800;8.596;2022-12-04T01:35:07;100377.50;;;7.37;53.58
36304;BME280;22335;49.800;8.596;2022-12-04T01:41:52;100358.69;;;7.36;53.42
36304;BME280;22335;49.800;8.596;2022-12-04T01:48:40;100387.56;;;7.42;53.63
36304;BME280;22335;49.800;8.596;2022-12-04T01:55:32;100389.81;;;7.60;53.33
36304;BME280;22335;49.800;8.596;2022-12-04T02:02:21;100382.00;;;7.90;53.13
36304;BME280;22335;49.800;8.596;2022-12-04T02:09:10;100394.00;;;7.89;52.98
36304;BME280;22335;49.800;8.596;2022-12-04T02:16:04;100387.44;;;7.79;53.21
36304;BME280;22335;49.800;8.596;2022-12-04T02:23:19;100381.69;;;7.71;53.15
36304;BME280;22335;49.800;8.596;2022-12-04T02:30:20;100387.72;;;7.78;53.44
36304;BME280;22335;49.800;8.596;2022-12-04T02:37:09;100384.69;;;7.69;53.36
36304;BME280;22335;49.800;8.596;2022-12-04T02:44:00;100391.97;;;7.58;53.24
36304;BME280;22335;49.800;8.596;2022-12-04T02:50:53;100374.06;;;7.62;53.32
36304;BME280;22335;49.800;8.596;2022-12-04T02:57:44;100390.41;;;7.73;53.28
36304;BME280;22335;49.800;8.596;2022-12-04T03:04:33;100389.06;;;7.75;53.21
36304;BME280;22335;49.800;8.596;2022-12-04T03:11:22;100386.13;;;8.02;52.86
36304;BME280;22335;49.800;8.596;2022-12-04T03:18:14;100357.47;;;7.79;53.19
36304;BME280;22335;49.800;8.596;2022-12-04T03:25:03;100362.09;;;7.79;53.04
36304;BME280;22335;49.800;8.596;2022-12-04T03:31:56;100355.59;;;7.85;53.26
36304;BME280;22335;49.800;8.596;2022-12-04T03:38:50;100367.59;;;8.04;53.14
36304;BME280;22335;49.800;8.596;2022-12-04T04:06:41;100327.28;;;8.01;53.05
36304;BME280;22335;49.800;8.596;2022-12-04T04:13:34;100346.13;;;8.18;53.09
36304;BME280;22335;49.800;8.596;2022-12-04T04:20:37;100339.56;;;8.19;53.04
36304;BME280;22335;49.800;8.596;2022-12-04T04:27:42;100322.94;;;8.16;53.15
36304;BME280;22335;49.800;8.596;2022-12-04T04:34:38;100309.59;;;8.09;52.93
36304;BME280;22335;49.800;8.596;2022-12-04T04:41:33;100314.25;;;8.24;52.96
36304;BME280;22335;49.800;8.596;2022-12-04T04:48:29;100328.41;;;8.36;53.04
36304;BME280;22335;49.800;8.596;2022-12-04T04:55:17;100310.44;;;8.45;52.74
36304;BME280;22335;49.800;8.596;2022-12-04T05:02:03;100333.31;;;8.60;52.61
36304;BME280;22335;49.800;8.596;2022-12-04T05:08:52;100313.16;;;8.50;52.84
36304;BME280;22335;49.800;8.596;2022-12-04T05:15:37;100339.84;;;8.64;52.53
36304;BME280;22335;49.800;8.596;2022-12-04T05:22:25;100326.50;;;8.57;52.56
36304;BME280;22335;49.800;8.596;2022-12-04T05:29:15;100340.94;;;8.63;52.50
36304;BME280;22335;49.800;8.596;2022-12-04T05:36:03;100340.69;;;8.64;52.55
36304;BME280;22335;49.800;8.596;2022-12-04T05:42:50;100337.13;;;8.53;52.54
36304;BME280;22335;49.800;8.596;2022-12-04T05:49:38;100348.06;;;8.59;52.61
36304;BME280;22335;49.800;8.596;2022-12-04T05:56:23;100343.97;;;8.56;52.63
36304;BME280;22335;49.800;8.596;2022-12-04T06:03:09;100329.78;;;8.49;52.53
36304;BME280;22335;49.800;8.596;2022-12-04T06:09:57;100337.16;;;8.59;52.47
36304;BME280;22335;49.800;8.596;2022-12-04T06:16:44;100344.78;;;8.62;52.59
36304;BME280;22335;49.800;8.596;2022-12-04T06:23:30;100361.13;;;8.77;52.54
36304;BME280;22335;49.800;8.596;2022-12-04T06:30:18;100348.00;;;8.79;52.60
36304;BME280;22335;49.800;8.596;2022-12-04T06:37:04;100341.75;;;8.78;52.40
36304;BME280;22335;49.800;8.596;2022-12-04T06:43:50;100358.88;;;8.99;52.29
36304;BME280;22335;49.800;8.596;2022-12-04T06:50:38;100343.56;;;9.14;51.97
36304;BME280;22335;49.800;8.596;2022-12-04T06:57:24;100346.34;;;8.98;52.08
36304;BME280;22335;49.800;8.596;2022-12-04T07:04:09;100349.59;;;9.06;52.26
36304;BME280;22335;49.800;8.596;2022-12-04T07:11:00;100324.56;;;8.83;52.48
36304;BME280;22335;49.800;8.596;2022-12-04T07:17:46;100339.00;;;8.89;52.28
36304;BME280;22335;49.800;8.596;2022-12-04T07:24:32;100335.72;;;8.87;52.52
36304;BME280;22335;49.800;8.596;2022-12-04T07:31:22;100322.09;;;8.87;52.56
36304;BME280;22335;49.800;8.596;2022-12-04T07:38:08;100341.97;;;8.97;52.70
36304;BME280;22335;49.800;8.596;2022-12-04T07:44:54;100333.25;;;8.90;52.62
36304;BME280;22335;49.800;8.596;2022-12-04T07:51:42;100331.94;;;8.83;52.68
36304;BME280;22335;49.800;8.596;2022-12-04T07:58:27;100349.34;;;8.97;52.65
36304;BME280;22335;49.800;8.596;2022-12-04T08:05:13;100368.69;;;9.06;52.55
36304;BME280;22335;49.800;8.596;2022-12-04T08:12:01;100360.25;;;8.97;52.45
36304;BME280;22335;49.800;8.596;2022-12-04T08:18:47;100356.16;;;8.94;52.47
36304;BME280;22335;49.800;8.596;2022-12-04T08:25:32;100360.00;;;8.98;52.30
36304;BME280;22335;49.800;8.596;2022-12-04T08:32:21;100349.06;;;8.93;52.51
36304;BME280;22335;49.800;8.596;2022-12-04T08:39:08;100348.25;;;8.93;52.48
36304;BME280;22335;49.800;8.596;2022-12-04T08:45:54;100354.75;;;9.07;52.08
36304;BME280;22335;49.800;8.596;2022-12-04T08:52:43;100331.38;;;8.75;52.65
36304;BME280;22335;49.800;8.596;2022-12-04T08:59:29;100334.13;;;8.70;52.70
36304;BME280;22335;49.800;8.596;2022-12-04T09:06:15;100341.50;;;8.65;52.74
36304;BME280;22335;49.800;8.596;2022-12-04T09:13:03;100359.19;;;8.72;52.69
36304;BME280;22335;49.800;8.596;2022-12-04T09:19:49;100330.03;;;8.58;52.89
36304;BME280;22335;49.800;8.596;2022-12-04T09:26:41;100343.38;;;8.69;52.67
36304;BME280;22335;49.800;8.596;2022-12-04T09:33:30;100349.41;;;8.71;52.77
36304;BME280;22335;49.800;8.596;2022-12-04T09:40:22;100348.28;;;8.72;52.99
36304;BME280;22335;49.800;8.596;2022-12-04T09:47:20;100347.47;;;8.72;52.81
36304;BME280;22335;49.800;8.596;2022-12-04T09:54:14;100343.94;;;8.71;53.00
36304;BME280;22335;49.800;8.596;2022-12-04T10:01:02;100359.47;;;8.86;52.82
36304;BME280;22335;49.800;8.596;2022-12-04T10:07:58;100334.66;;;8.77;52.69
36304;BME280;22335;49.800;8.596;2022-12-04T10:15:04;100261.66;;;8.39;52.80
36304;BME280;22335;49.800;8.596;2022-12-04T10:22:03;100312.56;;;8.89;52.81
36304;BME280;22335;49.800;8.596;2022-12-04T10:29:00;100328.88;;;9.05;52.70
36304;BME280;22335;49.800;8.596;2022-12-04T10:35:51;100306.53;;;8.92;52.66
36304;BME280;22335;49.800;8.596;2022-12-04T10:42:42;100317.41;;;9.03;52.59
36304;BME280;22335;49.800;8.596;2022-12-04T10:49:34;100280.06;;;8.93;52.69
36304;BME280;22335;49.800;8.596;2022-12-04T10:56:24;100292.06;;;9.02;52.74
36304;BME280;22335;49.800;8.596;2022-12-04T11:03:22;100274.88;;;9.02;52.87
36304;BME280;22335;49.800;8.596;2022-12-04T11:10:19;100258.78;;;8.95;52.96
36304;BME280;22335;49.800;8.596;2022-12-04T11:17:17;100246.00;;;8.85;53.06
36304;BME280;22335;49.800;8.596;2022-12-04T11:24:03;100251.75;;;8.84;53.06
36304;BME280;22335;49.800;8.596;2022-12-04T11:30:51;100265.63;;;8.82;53.15
36304;BME280;22335;49.800;8.596;2022-12-04T11:37:40;100255.59;;;8.72;53.25
36304;BME280;22335;49.800;8.596;2022-12-04T11:44:28;100253.16;;;8.71;53.57
36304;BME280;22335;49.800;8.596;2022-12-04T11:51:21;100263.47;;;8.84;53.43
36304;BME280;22335;49.800;8.596;2022-12-04T11:58:28;100256.94;;;8.80;53.48
36304;BME280;22335;49.800;8.596;2022-12-04T12:05:36;100278.34;;;9.12;53.55
36304;BME280;22335;49.800;8.596;2022-12-04T12:12:51;100267.19;;;9.14;53.42
36304;BME280;22335;49.800;8.596;2022-12-04T12:20:07;100292.19;;;9.31;53.32
36304;BME280;22335;49.800;8.596;2022-12-04T12:27:08;100195.53;;;8.88;53.28
36304;BME280;22335;49.800;8.596;2022-12-04T12:34:10;100259.16;;;9.33;53.28
36304;BME280;22335;49.800;8.596;2022-12-04T12:41:05;100254.50;;;9.38;53.34
36304;BME280;22335;49.800;8.596;2022-12-04T12:47:55;100258.22;;;9.53;53.26
36304;BME280;22335;49.800;8.596;2022-12-04T12:54:48;100273.22;;;9.55;53.11
36304;BME280;22335;49.800;8.596;2022-12-04T13:01:44;100269.34;;;9.66;53.29
36304;BME280;22335;49.800;8.596;2022-12-04T13:08:42;100245.63;;;9.57;52.97
36304;BME280;22335;49.800;8.596;2022-12-04T13:15:37;100227.84;;;9.64;52.96
36304;BME280;22335;49.800;8.596;2022-12-04T13:22:34;100211.44;;;9.69;53.24
36304;BME280;22335;49.800;8.596;2022-12-04T13:29:38;100228.53;;;9.80;53.22
36304;BME280;22335;49.800;8.596;2022-12-04T13:36:38;100203.97;;;9.80;52.88
36304;BME280;22335;49.800;8.596;2022-12-04T13:43:48;100212.16;;;9.80;53.21
36304;BME280;22335;49.800;8.596;2022-12-04T13:50:36;100198.59;;;9.70;52.96
36304;BME280;22335;49.800;8.596;2022-12-04T13:57:22;100217.66;;;9.75;52.87
36304;BME280;22335;49.800;8.596;2022-12-04T14:04:23;100207.03;;;9.74;53.07
36304;BME280;22335;49.800;8.596;2022-12-04T14:11:13;100193.97;;;9.65;52.78
36304;BME280;22335;49.800;8.596;2022-12-04T14:18:03;100189.31;;;9.66;52.78
36304;BME280;22335;49.800;8.596;2022-12-04T14:25:04;100204.66;;;9.57;52.79
36304;BME280;22335;49.800;8.596;2022-12-04T14:31:52;100211.28;;;9.51;52.62
36304;BME280;22335;49.800;8.596;2022-12-04T14:38:43;100202.66;;;9.38;52.99
36304;BME280;22335;49.800;8.596;2022-12-04T14:45:37;100222.50;;;9.44;52.74
36304;BME280;22335;49.800;8.596;2022-12-04T14:52:33;100244.09;;;9.40;52.74
36304;BME280;22335;49.800;8.596;2022-12-04T14:59:28;100233.31;;;9.20;52.78
36304;BME280;22335;49.800;8.596;2022-12-04T15:06:24;100243.69;;;9.13;53.20
36304;BME280;22335;49.800;8.596;2022-12-04T15:13:11;100244.81;;;9.07;53.28
36304;BME280;22335;49.800;8.596;2022-12-04T15:20:12;100238.00;;;9.04;53.07
36304;BME280;22335;49.800;8.596;2022-12-04T15:27:04;100231.97;;;9.12;53.17
36304;BME280;22335;49.800;8.596;2022-12-04T15:33:54;100217.78;;;9.10;53.08
36304;BME280;22335;49.800;8.596;2022-12-04T15:40:50;100245.63;;;9.12;53.38
36304;BME280;22335;49.800;8.596;2022-12-04T15:47:50;100235.31;;;8.99;53.44
36304;BME280;22335;49.800;8.596;2022-12-04T15:54:41;100249.22;;;8.97;53.49
36304;BME280;22335;49.800;8.596;2022-12-04T16:01:37;100258.00;;;8.79;53.62
36304;BME280;22335;49.800;8.596;2022-12-04T16:08:30;100258.00;;;8.79;53.75
36304;BME280;22335;49.800;8.596;2022-12-04T16:15:16;100245.22;;;8.80;53.83
36304;BME280;22335;49.800;8.596;2022-12-04T16:22:10;100247.09;;;8.84;53.76
36304;BME280;22335;49.800;8.596;2022-12-04T16:29:03;100253.66;;;8.78;53.86
36304;BME280;22335;49.800;8.596;2022-12-04T16:35:49;100253.38;;;8.85;53.65
36304;BME280;22335;49.800;8.596;2022-12-04T16:42:34;100236.75;;;8.81;53.73
36304;BME280;22335;49.800;8.596;2022-12-04T16:49:22;100200.56;;;8.60;53.60
36304;BME280;22335;49.800;8.596;2022-12-04T16:56:08;100226.41;;;8.73;53.73
36304;BME280;22335;49.800;8.596;2022-12-04T17:02:54;100222.06;;;8.72;53.85
36304;BME280;22335;49.800;8.596;2022-12-04T17:09:43;100224.16;;;8.90;53.88
36304;BME280;22335;49.800;8.596;2022-12-04T17:16:29;100222.50;;;8.99;53.72
36304;BME280;22335;49.800;8.596;2022-12-04T17:23:14;100204.19;;;9.05;53.67
36304;BME280;22335;49.800;8.596;2022-12-04T17:30:04;100209.59;;;9.10;53.74
36304;BME280;22335;49.800;8.596;2022-12-04T17:36:50;100180.75;;;8.99;53.75
36304;BME280;22335;49.800;8.596;2022-12-04T17:43:36;100193.53;;;9.09;53.95
36304;BME280;22335;49.800;8.596;2022-12-04T17:50:25;100168.06;;;9.23;53.71
36304;BME280;22335;49.800;8.596;2022-12-04T17:57:11;100178.31;;;9.42;53.33
36304;BME280;22335;49.800;8.596;2022-12-04T18:03:58;100213.41;;;9.59;53.31
36304;BME280;22335;49.800;8.596;2022-12-04T18:10:48;100229.25;;;9.57;53.24
36304;BME280;22335;49.800;8.596;2022-12-04T18:17:33;100229.31;;;9.52;53.44
36304;BME280;22335;49.800;8.596;2022-12-04T18:24:21;100217.84;;;9.50;53.44
36304;BME280;22335;49.800;8.596;2022-12-04T18:31:09;100228.53;;;9.80;53.09
36304;BME280;22335;49.800;8.596;2022-12-04T18:37:55;100216.53;;;9.42;53.58
36304;BME280;22335;49.800;8.596;2022-12-04T18:44:41;100214.13;;;9.35;54.06
36304;BME280;22335;49.800;8.596;2022-12-04T18:51:33;100208.78;;;9.15;54.34
36304;BME280;22335;49.800;8.596;2022-12-04T18:58:20;100236.28;;;9.23;54.36
36304;BME280;22335;49.800;8.596;2022-12-04T19:05:06;100227.84;;;9.20;54.35
36304;BME280;22335;49.800;8.596;2022-12-04T19:11:54;100229.47;;;9.21;54.32
36304;BME280;22335;49.800;8.596;2022-12-04T19:18:41;100221.91;;;9.08;54.31
36304;BME280;22335;49.800;8.596;2022-12-04T19:25:27;100233.72;;;9.42;53.71
36304;BME280;22335;49.800;8.596;2022-12-04T19:32:15;100219.19;;;9.08;54.47
36304;BME280;22335;49.800;8.596;2022-12-04T19:39:03;100232.00;;;9.07;54.59
36304;BME280;22335;49.800;8.596;2022-12-04T19:45:49;100252.75;;;9.08;54.82
36304;BME280;22335;49.800;8.596;2022-12-04T19:52:37;100262.78;;;9.13;54.84
36304;BME280;22335;49.800;8.596;2022-12-04T19:59:23;100272.66;;;9.09;54.72
36304;BME280;22335;49.800;8.596;2022-12-04T20:06:18;100271.53;;;9.10;54.86
36304;BME280;22335;49.800;8.596;2022-12-04T20:13:08;100290.88;;;9.18;54.88
36304;BME280;22335;49.800;8.596;2022-12-04T20:19:55;100271.78;;;9.13;54.60
36304;BME280;22335;49.800;8.596;2022-12-04T20:26:41;100277.78;;;9.20;54.65
36304;BME280;22335;49.800;8.596;2022-12-04T20:33:30;100284.59;;;9.23;54.82
36304;BME280;22335;49.800;8.596;2022-12-04T20:40:16;100278.31;;;9.22;54.85
36304;BME280;22335;49.800;8.596;2022-12-04T20:47:02;100304.41;;;9.44;54.80
36304;BME280;22335;49.800;8.596;2022-12-04T20:53:50;100293.47;;;9.49;54.66
36304;BME280;22335;49.800;8.596;2022-12-04T21:00:39;100284.97;;;9.51;54.48
36304;BME280;22335;49.800;8.596;2022-12-04T21:07:24;100305.69;;;9.57;54.34
36304;BME280;22335;49.800;8.596;2022-12-04T21:14:15;100309.53;;;9.56;54.32
36304;BME280;22335;49.800;8.596;2022-12-04T21:21:15;100306.31;;;9.49;54.47
36304;BME280;22335;49.800;8.596;2022-12-04T21:28:01;100298.38;;;9.52;54.27
36304;BME280;22335;49.800;8.596;2022-12-04T21:34:49;100303.50;;;9.64;54.30
36304;BME280;22335;49.800;8.596;2022-12-04T21:41:34;100307.31;;;9.63;54.15
36304;BME280;22335;49.800;8.596;2022-12-04T21:48:34;100314.13;;;9.65;54.12
36304;BME280;22335;49.800;8.596;2022-12-04T21:55:22;100320.91;;;9.73;54.32
36304;BME280;22335;49.800;8.596;2022-12-04T22:02:09;100317.63;;;9.76;54.25
36304;BME280;22335;49.800;8.596;2022-12-04T22:08:54;100311.63;;;9.74;54.04
36304;BME280;22335;49.800;8.596;2022-12-04T22:15:42;100320.63;;;9.75;54.23
36304;BME280;22335;49.800;8.596;2022-12-04T22:22:28;100329.28;;;9.87;54.04
36304;BME280;22335;49.800;8.596;2022-12-04T22:29:13;100338.84;;;9.89;54.07
36304;BME280;22335;49.800;8.596;2022-12-04T22:36:23;100323.03;;;9.81;54.08
36304;BME280;22335;49.800;8.596;2022-12-04T22:43:11;100314.34;;;9.74;53.90
36304;BME280;22335;49.800;8.596;2022-12-04T22:49:56;100338.09;;;9.79;54.00
36304;BME280;22335;49.800;8.596;2022-12-04T22:56:44;100334.03;;;9.66;54.09
36304;BME280;22335;49.800;8.596;2022-12-04T23:03:30;100359.91;;;9.84;54.20
36304;BME280;22335;49.800;8.596;2022-12-04T23:10:15;100341.41;;;9.76;54.02
36304;BME280;22335;49.800;8.596;2022-12-04T23:17:03;100357.16;;;9.84;54.11
36304;BME280;22335;49.800;8.596;2022-12-04T23:23:51;100350.41;;;9.76;54.16
36304;BME280;22335;49.800;8.596;2022-12-04T23:30:43;100246.44;;;9.13;54.44
36304;BME280;22335;49.800;8.596;2022-12-04T23:37:32;100337.25;;;9.78;54.09
36304;BME280;22335;49.800;8.596;2022-12-04T23:44:17;100270.66;;;9.24;54.18
36304;BME280;22335;49.800;8.596;2022-12-04T23:51:03;100360.03;;;9.63;54.23
36304;BME280;22335;49.800;8.596;2022-12-04T23:57:51;100358.66;;;9.61;54.48
